Time,TemperatureF,DewpointF,PressureIn,WindDirection,WindDirectionDegrees,WindSpeedMPH,WindSpeedGustMPH,Humidity,HourlyPrecipIn,Conditions,Clouds,dailyrainin,SolarRadiationWatts/m^2,SoftwareType,DateUTC
2013-02-20 00:11:00,31.0,27.0,-100.00,SW,221,7.0,24.0,86,0.00,,,0.00,0.000000,,2013-02-20 08:11:00,
2013-02-20 00:21:00,31.0,27.0,-100.00,SW,221,7.0,24.0,86,0.00,,,0.00,0.000000,,2013-02-20 08:21:00,
2013-02-20 00:52:00,30.0,27.0,-100.00,South,169,8.0,20.0,88,0.00,,,0.00,0.000000,,2013-02-20 08:52:00,
2013-02-20 01:01:00,30.0,27.0,-100.00,South,169,8.0,20.0,88,0.00,,,0.00,0.000000,,2013-02-20 09:01:00,
2013-02-20 01:11:00,30.0,27.0,-100.00,South,169,8.0,20.0,88,0.00,,,0.00,0.000000,,2013-02-20 09:11:00,
2013-02-20 01:21:00,30.0,27.0,-100.00,South,169,8.0,20.0,88,0.00,,,0.00,0.000000,,2013-02-20 09:21:00,
2013-02-20 01:52:00,30.0,28.0,-100.00,SSW,210,4.0,16.0,94,0.00,,,0.00,0.000000,,2013-02-20 09:52:00,
2013-02-20 02:01:00,30.0,28.0,-100.00,SSW,210,4.0,16.0,94,0.00,,,0.00,0.000000,,2013-02-20 10:01:00,
2013-02-20 02:12:00,30.0,28.0,-100.00,SSW,210,4.0,16.0,94,0.00,,,0.00,0.000000,,2013-02-20 10:12:00,
2013-02-20 02:21:00,30.0,28.0,-100.00,SSW,210,4.0,16.0,94,0.00,,,0.00,0.000000,,2013-02-20 10:21:00,
2013-02-20 02:52:00,29.0,27.0,-100.00,ENE,65,3.0,9.0,93,0.00,,,0.00,0.000000,,2013-02-20 10:52:00,
2013-02-20 03:02:00,29.0,27.0,-100.00,ENE,65,3.0,9.0,93,0.00,,,0.00,0.000000,,2013-02-20 11:02:00,
2013-02-20 03:11:00,29.0,27.0,-100.00,ENE,65,3.0,9.0,93,0.00,,,0.00,0.000000,,2013-02-20 11:11:00,
2013-02-20 03:21:00,29.0,27.0,-100.00,ENE,65,3.0,9.0,93,0.00,,,0.00,0.000000,,2013-02-20 11:21:00,
2013-02-20 03:52:00,29.0,27.0,-100.00,NE,38,1.0,9.0,94,0.00,,,0.00,0.000000,,2013-02-20 11:52:00,
2013-02-20 04:01:00,29.0,27.0,-100.00,NE,38,1.0,9.0,94,0.00,,,0.00,0.000000,,2013-02-20 12:01:00,
2013-02-20 04:12:00,29.0,27.0,-100.00,NE,38,1.0,9.0,94,0.00,,,0.00,0.000000,,2013-02-20 12:12:00,
2013-02-20 04:21:00,29.0,27.0,-100.00,NE,38,1.0,9.0,94,0.00,,,0.00,0.000000,,2013-02-20 12:21:00,
2013-02-20 04:53:00,29.0,28.0,-100.00,NNE,20,4.0,4.0,97,0.00,,,0.00,0.000000,,2013-02-20 12:53:00,
2013-02-20 05:01:00,29.0,28.0,-100.00,NNE,20,4.0,4.0,97,0.00,,,0.00,0.000000,,2013-02-20 13:01:00,
2013-02-20 05:11:00,29.0,28.0,-100.00,NNE,20,4.0,4.0,97,0.00,,,0.00,0.000000,,2013-02-20 13:11:00,
2013-02-20 05:22:00,29.0,28.0,-100.00,NNE,20,4.0,4.0,97,0.00,,,0.00,0.000000,,2013-02-20 13:22:00,
2013-02-20 06:52:00,28.0,27.0,-100.00,NNE,26,11.0,13.0,94,-99.99,,,0.00,0.000000,,2013-02-20 14:52:00,
2013-02-20 07:01:00,28.0,27.0,-100.00,NNE,26,11.0,13.0,94,-99.99,,,0.00,0.000000,,2013-02-20 15:01:00,
2013-02-20 07:11:00,28.0,27.0,-100.00,NNE,26,11.0,13.0,94,-99.99,,,0.00,0.000000,,2013-02-20 15:11:00,
2013-02-20 07:22:00,28.0,27.0,-100.00,NNE,26,11.0,13.0,94,-99.99,,,0.00,0.000000,,2013-02-20 15:22:00,
2013-02-20 07:52:00,27.0,26.0,-100.00,NNE,21,12.0,15.0,94,0.00,,,0.00,0.000000,,2013-02-20 15:52:00,
2013-02-20 08:01:00,27.0,26.0,-100.00,NNE,21,12.0,15.0,94,0.00,,,0.00,0.000000,,2013-02-20 16:01:00,
2013-02-20 08:11:00,27.0,26.0,-100.00,NNE,21,12.0,15.0,94,0.00,,,0.00,0.000000,,2013-02-20 16:11:00,
2013-02-20 08:21:00,27.0,26.0,-100.00,NNE,21,12.0,15.0,94,0.00,,,0.00,0.000000,,2013-02-20 16:21:00,
2013-02-20 08:52:00,28.0,26.0,-100.00,NNE,18,12.0,18.0,92,0.00,,,0.00,14.000000,,2013-02-20 16:52:00,
2013-02-20 09:01:00,28.0,26.0,-100.00,NNE,18,12.0,18.0,92,0.00,,,0.00,14.000000,,2013-02-20 17:01:00,
2013-02-20 09:11:00,28.0,26.0,-100.00,NNE,18,12.0,18.0,92,0.00,,,0.00,14.000000,,2013-02-20 17:11:00,
2013-02-20 09:21:00,28.0,26.0,-100.00,NNE,18,12.0,18.0,92,0.00,,,0.00,14.000000,,2013-02-20 17:21:00,
2013-02-20 09:52:00,29.0,25.0,-100.00,North,11,15.0,18.0,86,0.00,,,0.00,95.000000,,2013-02-20 17:52:00,
2013-02-20 10:02:00,29.0,25.0,-100.00,North,11,15.0,18.0,86,0.00,,,0.00,95.000000,,2013-02-20 18:02:00,
2013-02-20 10:11:00,29.0,25.0,-100.00,North,11,15.0,18.0,86,0.00,,,0.00,95.000000,,2013-02-20 18:11:00,
2013-02-20 10:21:00,29.0,25.0,-100.00,North,11,15.0,18.0,86,0.00,,,0.00,95.000000,,2013-02-20 18:21:00,
2013-02-20 10:52:00,31.0,27.0,-100.00,North,11,15.0,20.0,84,0.00,,,0.00,215.000000,,2013-02-20 18:52:00,
2013-02-20 11:01:00,31.0,27.0,-100.00,North,11,15.0,20.0,84,0.00,,,0.00,215.000000,,2013-02-20 19:01:00,
2013-02-20 11:11:00,31.0,27.0,-100.00,North,11,15.0,20.0,84,0.00,,,0.00,215.000000,,2013-02-20 19:11:00,
2013-02-20 11:21:00,31.0,27.0,-100.00,North,11,15.0,20.0,84,0.00,,,0.00,215.000000,,2013-02-20 19:21:00,
2013-02-20 11:52:00,32.0,26.0,-100.00,North,11,16.0,22.0,79,0.00,,,0.00,477.000000,,2013-02-20 19:52:00,
2013-02-20 12:01:00,32.0,26.0,-100.00,North,11,16.0,22.0,79,0.00,,,0.00,477.000000,,2013-02-20 20:01:00,
2013-02-20 12:11:00,32.0,26.0,-100.00,North,11,16.0,22.0,79,0.00,,,0.00,477.000000,,2013-02-20 20:11:00,
2013-02-20 12:21:00,32.0,26.0,-100.00,North,11,16.0,22.0,79,0.00,,,0.00,477.000000,,2013-02-20 20:21:00,
2013-02-20 12:51:00,32.0,24.0,-100.00,North,10,14.0,21.0,72,0.00,,,0.00,622.000000,,2013-02-20 20:51:00,
2013-02-20 13:01:00,32.0,24.0,-100.00,North,10,14.0,21.0,72,0.00,,,0.00,622.000000,,2013-02-20 21:01:00,
2013-02-20 13:11:00,32.0,24.0,-100.00,North,10,14.0,21.0,72,0.00,,,0.00,622.000000,,2013-02-20 21:11:00,
2013-02-20 13:21:00,32.0,24.0,-100.00,North,10,14.0,21.0,72,0.00,,,0.00,622.000000,,2013-02-20 21:21:00,
2013-02-20 13:52:00,33.0,25.0,-100.00,NNE,16,13.0,21.0,71,0.00,,,0.00,685.000000,,2013-02-20 21:52:00,
2013-02-20 14:01:00,33.0,25.0,-100.00,NNE,16,13.0,21.0,71,0.00,,,0.00,685.000000,,2013-02-20 22:01:00,
2013-02-20 14:11:00,33.0,25.0,-100.00,NNE,16,13.0,21.0,71,0.00,,,0.00,685.000000,,2013-02-20 22:11:00,
2013-02-20 14:21:00,33.0,25.0,-100.00,NNE,16,13.0,21.0,71,0.00,,,0.00,685.000000,,2013-02-20 22:21:00,
2013-02-20 15:12:00,33.0,25.0,-100.00,North,9,13.0,22.0,73,0.00,,,0.00,477.000000,,2013-02-20 23:12:00,
2013-02-20 15:22:00,33.0,25.0,-100.00,North,9,13.0,22.0,73,0.00,,,0.00,477.000000,,2013-02-20 23:22:00,
2013-02-20 15:52:00,33.0,26.0,-100.00,North,5,13.0,20.0,74,0.00,,,0.00,384.000000,,2013-02-20 23:52:00,
2013-02-20 16:02:00,33.0,26.0,-100.00,North,5,13.0,20.0,74,0.00,,,0.00,384.000000,,2013-02-21 00:02:00,
2013-02-20 16:11:00,33.0,26.0,-100.00,North,5,13.0,20.0,74,0.00,,,0.00,384.000000,,2013-02-21 00:11:00,
2013-02-20 16:21:00,33.0,26.0,-100.00,North,5,13.0,20.0,74,0.00,,,0.00,384.000000,,2013-02-21 00:21:00,
2013-02-20 16:52:00,32.0,26.0,-100.00,North,9,13.0,17.0,79,0.00,,,0.00,307.000000,,2013-02-21 00:52:00,
2013-02-20 17:01:00,32.0,26.0,-100.00,North,9,13.0,17.0,79,0.00,,,0.00,307.000000,,2013-02-21 01:01:00,
2013-02-20 17:11:00,32.0,26.0,-100.00,North,9,13.0,17.0,79,0.00,,,0.00,307.000000,,2013-02-21 01:11:00,
2013-02-20 17:21:00,32.0,26.0,-100.00,North,9,13.0,17.0,79,0.00,,,0.00,307.000000,,2013-02-21 01:21:00,
2013-02-20 17:52:00,31.0,26.0,-100.00,North,5,10.0,18.0,80,0.00,,,0.00,227.000000,,2013-02-21 01:52:00,
2013-02-20 18:01:00,31.0,26.0,-100.00,North,5,10.0,18.0,80,0.00,,,0.00,227.000000,,2013-02-21 02:01:00,
2013-02-20 18:11:00,31.0,26.0,-100.00,North,5,10.0,18.0,80,0.00,,,0.00,227.000000,,2013-02-21 02:11:00,
2013-02-20 18:21:00,31.0,26.0,-100.00,North,5,10.0,18.0,80,0.00,,,0.00,227.000000,,2013-02-21 02:21:00,
2013-02-20 19:01:00,29.0,22.0,-100.00,NW,308,15.0,19.0,74,0.00,,,0.00,71.000000,,2013-02-21 03:01:00,
2013-02-20 19:11:00,29.0,22.0,-100.00,NW,308,15.0,19.0,74,0.00,,,0.00,71.000000,,2013-02-21 03:11:00,
2013-02-20 19:21:00,29.0,22.0,-100.00,NW,308,15.0,19.0,74,0.00,,,0.00,71.000000,,2013-02-21 03:21:00,
2013-02-20 19:52:00,27.0,16.0,-100.00,NW,306,15.0,21.0,62,0.00,,,0.00,7.000000,,2013-02-21 03:52:00,
2013-02-20 20:01:00,27.0,16.0,-100.00,NW,306,15.0,21.0,62,0.00,,,0.00,7.000000,,2013-02-21 04:01:00,
2013-02-20 20:11:00,27.0,16.0,-100.00,NW,306,15.0,21.0,62,0.00,,,0.00,7.000000,,2013-02-21 04:11:00,
2013-02-20 20:21:00,27.0,16.0,-100.00,NW,306,15.0,21.0,62,0.00,,,0.00,7.000000,,2013-02-21 04:21:00,
2013-02-20 20:52:00,25.0,15.0,-100.00,WNW,299,5.0,27.0,64,0.00,,,0.00,0.000000,,2013-02-21 04:52:00,
2013-02-20 21:02:00,25.0,15.0,-100.00,WNW,299,5.0,27.0,64,0.00,,,0.00,0.000000,,2013-02-21 05:02:00,
2013-02-20 21:12:00,25.0,15.0,-100.00,WNW,299,5.0,27.0,64,0.00,,,0.00,0.000000,,2013-02-21 05:12:00,
2013-02-20 21:21:00,25.0,15.0,-100.00,WNW,299,5.0,27.0,64,0.00,,,0.00,0.000000,,2013-02-21 05:21:00,
2013-02-20 21:59:00,24.0,15.0,-100.00,West,274,5.0,24.0,69,0.00,,,0.00,0.000000,,2013-02-21 05:59:00,
2013-02-20 22:01:00,24.0,15.0,-100.00,West,274,5.0,24.0,69,0.00,,,0.00,0.000000,,2013-02-21 06:01:00,
2013-02-20 22:11:00,24.0,15.0,-100.00,West,274,5.0,24.0,69,0.00,,,0.00,0.000000,,2013-02-21 06:11:00,
2013-02-20 22:21:00,24.0,15.0,-100.00,West,274,5.0,24.0,69,0.00,,,0.00,0.000000,,2013-02-21 06:21:00,
2013-02-20 22:51:00,21.0,13.0,-100.00,West,263,7.0,11.0,71,0.00,,,0.00,0.000000,,2013-02-21 06:51:00,
2013-02-20 23:01:00,21.0,13.0,-100.00,West,263,7.0,11.0,71,0.00,,,0.00,0.000000,,2013-02-21 07:01:00,
2013-02-20 23:11:00,21.0,13.0,-100.00,West,263,7.0,11.0,71,0.00,,,0.00,0.000000,,2013-02-21 07:11:00,
2013-02-20 23:21:00,21.0,13.0,-100.00,West,263,7.0,11.0,71,0.00,,,0.00,0.000000,,2013-02-21 07:21:00,
2013-02-20 23:52:00,20.0,13.0,-100.00,NW,318,2.0,11.0,73,0.00,,,0.00,0.000000,,2013-02-21 07:52:00,